AQQ10 IFIS: Internet Flight Information System
logo dgac
Lunes 27 de Septiembre del 2021
Buscar por aerodromo o helipuerto
Ingrese nombre de aeródromo, localidad o designador OACI:
METAR del 27-09-2021 a las 02:00 UTC
Para mayor información visite www.meteochile.cl
METAR SCEL 270200Z 15007KT CAVOK 15/08 Q1018 NOSIG
Viento: dirección 150 grados, velocidad 7 nudos
Visibilidad: 10 km o más,
    sin nubes bajo los 5.000 pies o bajo del MSA (Mínimo de Seguridad del Aeródromo),
    sin cumulonimbus, y sin fenómenos de tiempo significativo en el aeródromo o alrededores
Temperatura: 15 °C
Rocío: 8 °C
Humedad_relativa: 63%
Presión: 1018 hPa
No se esperan cambios significativos en las próximas 2 horas
METAR del 27-09-2021 a las 01:00 UTC
Para mayor información visite www.meteochile.cl
METAR SCEL 270100Z 20011KT CAVOK 16/08 Q1018 NOSIG
Viento: dirección 200 grados, velocidad 11 nudos
Visibilidad: 10 km o más,
    sin nubes bajo los 5.000 pies o bajo del MSA (Mínimo de Seguridad del Aeródromo),
    sin cumulonimbus, y sin fenómenos de tiempo significativo en el aeródromo o alrededores
Temperatura: 16 °C
Rocío: 8 °C
Humedad_relativa: 59%
Presión: 1018 hPa
No se esperan cambios significativos en las próximas 2 horas
METAR del 27-09-2021 a las 00:00 UTC
Para mayor información visite www.meteochile.cl
METAR SCEL 270000Z 17007KT 140V220 CAVOK 17/07 Q1017 NOSIG
Viento: dirección 170 grados, velocidad 7 nudos
Viento con dirección variable entre 140 y 220 grados
Visibilidad: 10 km o más,
    sin nubes bajo los 5.000 pies o bajo del MSA (Mínimo de Seguridad del Aeródromo),
    sin cumulonimbus, y sin fenómenos de tiempo significativo en el aeródromo o alrededores
Temperatura: 17 °C
Rocío: 7 °C
Humedad_relativa: 52%
Presión: 1017 hPa
No se esperan cambios significativos en las próximas 2 horas
METAR del 26-09-2021 a las 23:00 UTC
Para mayor información visite www.meteochile.cl
METAR SCEL 262300Z 21009KT CAVOK 18/07 Q1016 NOSIG
Viento: dirección 210 grados, velocidad 9 nudos
Visibilidad: 10 km o más,
    sin nubes bajo los 5.000 pies o bajo del MSA (Mínimo de Seguridad del Aeródromo),
    sin cumulonimbus, y sin fenómenos de tiempo significativo en el aeródromo o alrededores
Temperatura: 18 °C
Rocío: 7 °C
Humedad_relativa: 49%
Presión: 1016 hPa
No se esperan cambios significativos en las próximas 2 horas
METAR del 26-09-2021 a las 22:00 UTC
Para mayor información visite www.meteochile.cl
METAR SCEL 262200Z 21013KT CAVOK 21/08 Q1015 NOSIG
Viento: dirección 210 grados, velocidad 13 nudos
Visibilidad: 10 km o más,
    sin nubes bajo los 5.000 pies o bajo del MSA (Mínimo de Seguridad del Aeródromo),
    sin cumulonimbus, y sin fenómenos de tiempo significativo en el aeródromo o alrededores
Temperatura: 21 °C
Rocío: 8 °C
Humedad_relativa: 43%
Presión: 1015 hPa
No se esperan cambios significativos en las próximas 2 horas
METAR del 26-09-2021 a las 21:00 UTC
Para mayor información visite www.meteochile.cl
METAR SCEL 262100Z 22013KT CAVOK 22/07 Q1015 NOSIG
Viento: dirección 220 grados, velocidad 13 nudos
Visibilidad: 10 km o más,
    sin nubes bajo los 5.000 pies o bajo del MSA (Mínimo de Seguridad del Aeródromo),
    sin cumulonimbus, y sin fenómenos de tiempo significativo en el aeródromo o alrededores
Temperatura: 22 °C
Rocío: 7 °C
Humedad_relativa: 38%
Presión: 1015 hPa
No se esperan cambios significativos en las próximas 2 horas
METAR del 26-09-2021 a las 20:00 UTC
Para mayor información visite www.meteochile.cl
METAR SCEL 262000Z 21011KT 150V240 CAVOK 23/07 Q1015 NOSIG
Viento: dirección 210 grados, velocidad 11 nudos
Viento con dirección variable entre 150 y 240 grados
Visibilidad: 10 km o más,
    sin nubes bajo los 5.000 pies o bajo del MSA (Mínimo de Seguridad del Aeródromo),
    sin cumulonimbus, y sin fenómenos de tiempo significativo en el aeródromo o alrededores
Temperatura: 23 °C
Rocío: 7 °C
Humedad_relativa: 36%
Presión: 1015 hPa
No se esperan cambios significativos en las próximas 2 horas
METAR del 26-09-2021 a las 19:00 UTC
Para mayor información visite www.meteochile.cl
METAR SCEL 261900Z 17010KT 140V200 CAVOK 23/05 Q1015 NOSIG
Viento: dirección 170 grados, velocidad 10 nudos
Viento con dirección variable entre 140 y 200 grados
Visibilidad: 10 km o más,
    sin nubes bajo los 5.000 pies o bajo del MSA (Mínimo de Seguridad del Aeródromo),
    sin cumulonimbus, y sin fenómenos de tiempo significativo en el aeródromo o alrededores
Temperatura: 23 °C
Rocío: 5 °C
Humedad_relativa: 31%
Presión: 1015 hPa
No se esperan cambios significativos en las próximas 2 horas
METAR del 26-09-2021 a las 18:00 UTC
Para mayor información visite www.meteochile.cl
METAR SCEL 261800Z 15009KT 120V200 CAVOK 24/07 Q1015 NOSIG
Viento: dirección 150 grados, velocidad 9 nudos
Viento con dirección variable entre 120 y 200 grados
Visibilidad: 10 km o más,
    sin nubes bajo los 5.000 pies o bajo del MSA (Mínimo de Seguridad del Aeródromo),
    sin cumulonimbus, y sin fenómenos de tiempo significativo en el aeródromo o alrededores
Temperatura: 24 °C
Rocío: 7 °C
Humedad_relativa: 34%
Presión: 1015 hPa
No se esperan cambios significativos en las próximas 2 horas
METAR del 26-09-2021 a las 17:00 UTC
Para mayor información visite www.meteochile.cl
METAR SCEL 261700Z 16006KT 090V210 CAVOK 21/07 Q1016 NOSIG
Viento: dirección 160 grados, velocidad 6 nudos
Viento con dirección variable entre 090 y 210 grados
Visibilidad: 10 km o más,
    sin nubes bajo los 5.000 pies o bajo del MSA (Mínimo de Seguridad del Aeródromo),
    sin cumulonimbus, y sin fenómenos de tiempo significativo en el aeródromo o alrededores
Temperatura: 21 °C
Rocío: 7 °C
Humedad_relativa: 40%
Presión: 1016 hPa
No se esperan cambios significativos en las próximas 2 horas